sensor_id;sensor_type;location;lat;lon;timestamp;P1;durP1;ratioP1;P2;durP2;ratioP2
7831;SDS011;3961;42.058;25.586;2023-11-21T00:02:14;16.67;;;5.93;;
7831;SDS011;3961;42.058;25.586;2023-11-21T00:04:40;10.73;;;5.40;;
7831;SDS011;3961;42.058;25.586;2023-11-21T00:07:05;10.13;;;4.53;;
7831;SDS011;3961;42.058;25.586;2023-11-21T00:09:31;10.53;;;5.00;;
7831;SDS011;3961;42.058;25.586;2023-11-21T00:11:58;8.03;;;4.30;;
7831;SDS011;3961;42.058;25.586;2023-11-21T00:14:24;8.63;;;4.13;;
7831;SDS011;3961;42.058;25.586;2023-11-21T00:16:50;5.90;;;4.27;;
7831;SDS011;3961;42.058;25.586;2023-11-21T00:19:16;7.30;;;4.13;;
7831;SDS011;3961;42.058;25.586;2023-11-21T00:21:42;5.07;;;3.00;;
7831;SDS011;3961;42.058;25.586;2023-11-21T00:24:09;3.90;;;3.30;;
7831;SDS011;3961;42.058;25.586;2023-11-21T00:26:35;7.40;;;4.10;;
7831;SDS011;3961;42.058;25.586;2023-11-21T00:29:04;7.80;;;3.60;;
7831;SDS011;3961;42.058;25.586;2023-11-21T00:31:33;6.80;;;3.90;;
7831;SDS011;3961;42.058;25.586;2023-11-21T00:33:59;6.17;;;3.57;;
7831;SDS011;3961;42.058;25.586;2023-11-21T00:36:24;7.00;;;3.70;;
7831;SDS011;3961;42.058;25.586;2023-11-21T00:38:51;6.53;;;4.07;;
7831;SDS011;3961;42.058;25.586;2023-11-21T00:41:16;7.33;;;3.80;;
7831;SDS011;3961;42.058;25.586;2023-11-21T00:43:42;6.93;;;3.20;;
7831;SDS011;3961;42.058;25.586;2023-11-21T00:46:07;6.23;;;4.00;;
7831;SDS011;3961;42.058;25.586;2023-11-21T00:48:33;7.43;;;4.00;;
7831;SDS011;3961;42.058;25.586;2023-11-21T00:50:59;6.20;;;4.50;;
7831;SDS011;3961;42.058;25.586;2023-11-21T00:53:25;5.23;;;3.57;;
7831;SDS011;3961;42.058;25.586;2023-11-21T00:55:50;6.50;;;3.83;;
7831;SDS011;3961;42.058;25.586;2023-11-21T00:58:22;6.20;;;3.70;;
7831;SDS011;3961;42.058;25.586;2023-11-21T01:00:50;7.97;;;3.73;;
7831;SDS011;3961;42.058;25.586;2023-11-21T01:03:16;8.27;;;4.17;;
7831;SDS011;3961;42.058;25.586;2023-11-21T01:05:42;5.13;;;3.63;;
7831;SDS011;3961;42.058;25.586;2023-11-21T01:08:07;5.53;;;3.53;;
7831;SDS011;3961;42.058;25.586;2023-11-21T01:10:33;5.53;;;3.50;;
7831;SDS011;3961;42.058;25.586;2023-11-21T01:12:59;6.53;;;4.00;;
7831;SDS011;3961;42.058;25.586;2023-11-21T01:15:25;7.43;;;3.80;;
7831;SDS011;3961;42.058;25.586;2023-11-21T01:17:51;6.87;;;3.60;;
7831;SDS011;3961;42.058;25.586;2023-11-21T01:20:17;8.17;;;3.80;;
7831;SDS011;3961;42.058;25.586;2023-11-21T01:22:43;4.77;;;3.70;;
7831;SDS011;3961;42.058;25.586;2023-11-21T01:25:09;6.27;;;3.83;;
7831;SDS011;3961;42.058;25.586;2023-11-21T01:27:35;7.33;;;4.57;;
7831;SDS011;3961;42.058;25.586;2023-11-21T01:30:04;6.90;;;3.73;;
7831;SDS011;3961;42.058;25.586;2023-11-21T01:32:33;8.60;;;4.00;;
7831;SDS011;3961;42.058;25.586;2023-11-21T01:35:00;6.07;;;3.93;;
7831;SDS011;3961;42.058;25.586;2023-11-21T01:37:26;5.37;;;4.23;;
7831;SDS011;3961;42.058;25.586;2023-11-21T01:39:53;6.30;;;4.07;;
7831;SDS011;3961;42.058;25.586;2023-11-21T01:42:20;6.43;;;3.93;;
7831;SDS011;3961;42.058;25.586;2023-11-21T01:44:46;9.77;;;4.20;;
7831;SDS011;3961;42.058;25.586;2023-11-21T01:47:12;5.30;;;3.80;;
7831;SDS011;3961;42.058;25.586;2023-11-21T01:49:38;7.93;;;3.83;;
7831;SDS011;3961;42.058;25.586;2023-11-21T01:52:04;7.27;;;4.07;;
7831;SDS011;3961;42.058;25.586;2023-11-21T01:54:31;5.87;;;3.70;;
7831;SDS011;3961;42.058;25.586;2023-11-21T01:56:57;6.40;;;3.63;;
7831;SDS011;3961;42.058;25.586;2023-11-21T01:59:35;6.30;;;4.07;;
7831;SDS011;3961;42.058;25.586;2023-11-21T02:02:08;6.20;;;3.50;;
7831;SDS011;3961;42.058;25.586;2023-11-21T02:04:34;6.50;;;4.13;;
7831;SDS011;3961;42.058;25.586;2023-11-21T02:07:02;5.60;;;4.07;;
7831;SDS011;3961;42.058;25.586;2023-11-21T02:09:30;6.93;;;3.60;;
7831;SDS011;3961;42.058;25.586;2023-11-21T02:11:56;5.87;;;3.30;;
7831;SDS011;3961;42.058;25.586;2023-11-21T02:14:24;6.63;;;3.83;;
7831;SDS011;3961;42.058;25.586;2023-11-21T02:16:53;5.53;;;4.03;;
7831;SDS011;3961;42.058;25.586;2023-11-21T02:19:21;5.80;;;4.10;;
7831;SDS011;3961;42.058;25.586;2023-11-21T02:21:54;9.50;;;3.87;;
7831;SDS011;3961;42.058;25.586;2023-11-21T02:24:23;6.80;;;5.00;;
7831;SDS011;3961;42.058;25.586;2023-11-21T02:26:49;13.67;;;6.20;;
7831;SDS011;3961;42.058;25.586;2023-11-21T02:29:18;11.37;;;6.63;;
7831;SDS011;3961;42.058;25.586;2023-11-21T02:31:47;12.53;;;7.30;;
7831;SDS011;3961;42.058;25.586;2023-11-21T02:34:14;11.77;;;8.97;;
7831;SDS011;3961;42.058;25.586;2023-11-21T02:36:41;15.73;;;8.43;;
7831;SDS011;3961;42.058;25.586;2023-11-21T02:39:07;13.30;;;8.60;;
7831;SDS011;3961;42.058;25.586;2023-11-21T02:41:33;12.90;;;7.40;;
7831;SDS011;3961;42.058;25.586;2023-11-21T02:44:00;12.00;;;6.80;;
7831;SDS011;3961;42.058;25.586;2023-11-21T02:46:26;9.30;;;6.17;;
7831;SDS011;3961;42.058;25.586;2023-11-21T02:48:52;17.60;;;9.90;;
7831;SDS011;3961;42.058;25.586;2023-11-21T02:51:20;18.37;;;11.10;;
7831;SDS011;3961;42.058;25.586;2023-11-21T02:53:46;72.67;;;24.53;;
7831;SDS011;3961;42.058;25.586;2023-11-21T02:56:12;75.97;;;23.33;;
7831;SDS011;3961;42.058;25.586;2023-11-21T02:58:41;88.83;;;31.43;;
7831;SDS011;3961;42.058;25.586;2023-11-21T03:01:09;67.87;;;27.47;;
7831;SDS011;3961;42.058;25.586;2023-11-21T03:03:36;46.50;;;19.90;;
7831;SDS011;3961;42.058;25.586;2023-11-21T03:06:05;43.77;;;18.20;;
7831;SDS011;3961;42.058;25.586;2023-11-21T03:08:32;43.07;;;17.60;;
7831;SDS011;3961;42.058;25.586;2023-11-21T03:10:57;40.23;;;16.97;;
7831;SDS011;3961;42.058;25.586;2023-11-21T03:13:23;41.63;;;16.38;;
7831;SDS011;3961;42.058;25.586;2023-11-21T03:15:49;42.20;;;18.43;;
7831;SDS011;3961;42.058;25.586;2023-11-21T03:18:14;45.73;;;19.67;;
7831;SDS011;3961;42.058;25.586;2023-11-21T03:20:40;51.77;;;21.27;;
7831;SDS011;3961;42.058;25.586;2023-11-21T03:23:06;53.77;;;20.83;;
7831;SDS011;3961;42.058;25.586;2023-11-21T03:25:32;46.27;;;20.33;;
7831;SDS011;3961;42.058;25.586;2023-11-21T03:27:57;51.17;;;21.73;;
7831;SDS011;3961;42.058;25.586;2023-11-21T03:30:23;45.30;;;20.13;;
7831;SDS011;3961;42.058;25.586;2023-11-21T03:32:49;48.10;;;19.57;;
7831;SDS011;3961;42.058;25.586;2023-11-21T03:35:14;42.70;;;19.17;;
7831;SDS011;3961;42.058;25.586;2023-11-21T03:37:40;34.07;;;12.93;;
7831;SDS011;3961;42.058;25.586;2023-11-21T03:40:07;26.10;;;12.63;;
7831;SDS011;3961;42.058;25.586;2023-11-21T03:42:37;29.50;;;12.87;;
7831;SDS011;3961;42.058;25.586;2023-11-21T03:45:04;22.77;;;10.30;;
7831;SDS011;3961;42.058;25.586;2023-11-21T03:47:31;22.47;;;9.83;;
7831;SDS011;3961;42.058;25.586;2023-11-21T03:49:56;26.07;;;9.27;;
7831;SDS011;3961;42.058;25.586;2023-11-21T03:52:22;16.10;;;8.60;;
7831;SDS011;3961;42.058;25.586;2023-11-21T03:54:47;13.23;;;8.10;;
7831;SDS011;3961;42.058;25.586;2023-11-21T03:57:13;18.37;;;7.90;;
7831;SDS011;3961;42.058;25.586;2023-11-21T03:59:42;18.17;;;8.37;;
7831;SDS011;3961;42.058;25.586;2023-11-21T04:02:08;12.13;;;7.77;;
7831;SDS011;3961;42.058;25.586;2023-11-21T04:04:35;15.20;;;8.20;;
7831;SDS011;3961;42.058;25.586;2023-11-21T04:07:01;15.93;;;7.43;;
7831;SDS011;3961;42.058;25.586;2023-11-21T04:09:26;20.70;;;7.33;;
7831;SDS011;3961;42.058;25.586;2023-11-21T04:11:53;12.20;;;7.10;;
7831;SDS011;3961;42.058;25.586;2023-11-21T04:14:19;11.57;;;6.57;;
7831;SDS011;3961;42.058;25.586;2023-11-21T04:16:45;13.53;;;6.57;;
7831;SDS011;3961;42.058;25.586;2023-11-21T04:19:10;13.53;;;6.50;;
7831;SDS011;3961;42.058;25.586;2023-11-21T04:21:36;11.37;;;6.60;;
7831;SDS011;3961;42.058;25.586;2023-11-21T04:24:02;10.50;;;6.60;;
7831;SDS011;3961;42.058;25.586;2023-11-21T04:26:28;10.50;;;6.70;;
7831;SDS011;3961;42.058;25.586;2023-11-21T04:28:54;15.17;;;8.00;;
7831;SDS011;3961;42.058;25.586;2023-11-21T04:31:19;13.53;;;6.70;;
7831;SDS011;3961;42.058;25.586;2023-11-21T04:33:45;11.10;;;7.20;;
7831;SDS011;3961;42.058;25.586;2023-11-21T04:36:10;10.20;;;6.50;;
7831;SDS011;3961;42.058;25.586;2023-11-21T04:38:36;9.57;;;6.47;;
7831;SDS011;3961;42.058;25.586;2023-11-21T04:41:01;9.77;;;7.20;;
7831;SDS011;3961;42.058;25.586;2023-11-21T04:43:27;9.17;;;6.73;;
7831;SDS011;3961;42.058;25.586;2023-11-21T04:45:54;9.83;;;6.33;;
7831;SDS011;3961;42.058;25.586;2023-11-21T04:48:20;13.33;;;6.73;;
7831;SDS011;3961;42.058;25.586;2023-11-21T04:50:46;10.97;;;6.57;;
7831;SDS011;3961;42.058;25.586;2023-11-21T04:53:11;9.73;;;6.07;;
7831;SDS011;3961;42.058;25.586;2023-11-21T04:55:40;8.73;;;6.70;;
7831;SDS011;3961;42.058;25.586;2023-11-21T04:58:07;11.20;;;6.53;;
7831;SDS011;3961;42.058;25.586;2023-11-21T05:00:33;13.43;;;6.33;;
7831;SDS011;3961;42.058;25.586;2023-11-21T05:02:59;10.23;;;5.97;;
7831;SDS011;3961;42.058;25.586;2023-11-21T05:05:26;18.87;;;11.00;;
7831;SDS011;3961;42.058;25.586;2023-11-21T05:07:52;11.67;;;7.57;;
7831;SDS011;3961;42.058;25.586;2023-11-21T05:10:19;11.57;;;6.30;;
7831;SDS011;3961;42.058;25.586;2023-11-21T05:12:45;10.90;;;6.90;;
7831;SDS011;3961;42.058;25.586;2023-11-21T05:15:13;12.37;;;8.27;;
7831;SDS011;3961;42.058;25.586;2023-11-21T05:17:40;12.53;;;6.67;;
7831;SDS011;3961;42.058;25.586;2023-11-21T05:20:15;13.40;;;8.50;;
7831;SDS011;3961;42.058;25.586;2023-11-21T05:22:48;14.27;;;7.03;;
7831;SDS011;3961;42.058;25.586;2023-11-21T05:25:14;11.97;;;8.03;;
7831;SDS011;3961;42.058;25.586;2023-11-21T05:27:40;11.73;;;7.60;;
7831;SDS011;3961;42.058;25.586;2023-11-21T05:30:06;14.90;;;6.80;;
7831;SDS011;3961;42.058;25.586;2023-11-21T05:32:34;18.90;;;7.07;;
7831;SDS011;3961;42.058;25.586;2023-11-21T05:35:00;21.20;;;6.80;;
7831;SDS011;3961;42.058;25.586;2023-11-21T05:37:26;12.10;;;7.20;;
7831;SDS011;3961;42.058;25.586;2023-11-21T05:39:55;12.70;;;6.77;;
7831;SDS011;3961;42.058;25.586;2023-11-21T05:42:24;13.70;;;6.90;;
7831;SDS011;3961;42.058;25.586;2023-11-21T05:44:50;13.23;;;6.83;;
7831;SDS011;3961;42.058;25.586;2023-11-21T05:47:16;16.77;;;7.47;;
7831;SDS011;3961;42.058;25.586;2023-11-21T05:49:41;20.23;;;6.80;;
7831;SDS011;3961;42.058;25.586;2023-11-21T05:52:07;14.63;;;7.50;;
7831;SDS011;3961;42.058;25.586;2023-11-21T05:54:32;14.43;;;7.07;;
7831;SDS011;3961;42.058;25.586;2023-11-21T05:56:59;11.63;;;6.97;;
7831;SDS011;3961;42.058;25.586;2023-11-21T05:59:24;22.10;;;7.87;;
7831;SDS011;3961;42.058;25.586;2023-11-21T06:01:50;16.13;;;7.23;;
7831;SDS011;3961;42.058;25.586;2023-11-21T06:04:15;17.97;;;8.57;;
7831;SDS011;3961;42.058;25.586;2023-11-21T06:06:41;23.87;;;10.90;;
7831;SDS011;3961;42.058;25.586;2023-11-21T06:09:06;18.17;;;9.90;;
7831;SDS011;3961;42.058;25.586;2023-11-21T06:11:34;22.90;;;10.27;;
7831;SDS011;3961;42.058;25.586;2023-11-21T06:14:00;27.80;;;11.67;;
7831;SDS011;3961;42.058;25.586;2023-11-21T06:16:26;42.27;;;13.17;;
7831;SDS011;3961;42.058;25.586;2023-11-21T06:18:52;37.03;;;13.90;;
7831;SDS011;3961;42.058;25.586;2023-11-21T06:21:18;29.90;;;11.87;;
7831;SDS011;3961;42.058;25.586;2023-11-21T06:23:44;33.23;;;13.00;;
7831;SDS011;3961;42.058;25.586;2023-11-21T06:26:09;31.13;;;13.00;;
7831;SDS011;3961;42.058;25.586;2023-11-21T06:28:35;20.97;;;10.53;;
7831;SDS011;3961;42.058;25.586;2023-11-21T06:31:01;25.20;;;12.37;;
7831;SDS011;3961;42.058;25.586;2023-11-21T06:33:30;41.50;;;14.60;;
7831;SDS011;3961;42.058;25.586;2023-11-21T06:35:57;21.90;;;14.23;;
7831;SDS011;3961;42.058;25.586;2023-11-21T06:38:23;23.37;;;13.03;;
7831;SDS011;3961;42.058;25.586;2023-11-21T06:40:49;19.93;;;12.30;;
7831;SDS011;3961;42.058;25.586;2023-11-21T06:43:14;42.70;;;17.40;;
7831;SDS011;3961;42.058;25.586;2023-11-21T06:45:40;33.23;;;13.67;;
7831;SDS011;3961;42.058;25.586;2023-11-21T06:48:06;35.60;;;13.43;;
7831;SDS011;3961;42.058;25.586;2023-11-21T06:50:31;28.47;;;14.80;;
7831;SDS011;3961;42.058;25.586;2023-11-21T06:52:57;33.93;;;13.63;;
7831;SDS011;3961;42.058;25.586;2023-11-21T06:55:22;24.43;;;14.27;;
7831;SDS011;3961;42.058;25.586;2023-11-21T06:57:48;24.57;;;14.67;;
7831;SDS011;3961;42.058;25.586;2023-11-21T07:00:15;19.30;;;12.37;;
7831;SDS011;3961;42.058;25.586;2023-11-21T07:02:43;14.97;;;9.60;;
7831;SDS011;3961;42.058;25.586;2023-11-21T07:05:09;16.03;;;8.40;;
7831;SDS011;3961;42.058;25.586;2023-11-21T07:07:34;12.87;;;8.17;;
7831;SDS011;3961;42.058;25.586;2023-11-21T07:10:03;11.83;;;7.60;;
7831;SDS011;3961;42.058;25.586;2023-11-21T07:12:31;16.63;;;7.90;;
7831;SDS011;3961;42.058;25.586;2023-11-21T07:14:56;28.93;;;20.27;;
7831;SDS011;3961;42.058;25.586;2023-11-21T07:17:23;27.50;;;13.23;;
7831;SDS011;3961;42.058;25.586;2023-11-21T07:19:49;19.93;;;7.90;;
7831;SDS011;3961;42.058;25.586;2023-11-21T07:22:15;17.30;;;7.97;;
7831;SDS011;3961;42.058;25.586;2023-11-21T07:24:49;18.93;;;7.67;;
7831;SDS011;3961;42.058;25.586;2023-11-21T07:27:16;16.33;;;9.77;;
7831;SDS011;3961;42.058;25.586;2023-11-21T07:29:41;16.07;;;9.47;;
7831;SDS011;3961;42.058;25.586;2023-11-21T07:32:07;16.33;;;8.63;;
7831;SDS011;3961;42.058;25.586;2023-11-21T07:34:34;8.23;;;6.23;;
7831;SDS011;3961;42.058;25.586;2023-11-21T07:37:01;9.40;;;5.80;;
7831;SDS011;3961;42.058;25.586;2023-11-21T07:39:27;20.87;;;8.53;;
7831;SDS011;3961;42.058;25.586;2023-11-21T07:41:53;13.43;;;7.13;;
7831;SDS011;3961;42.058;25.586;2023-11-21T07:44:19;20.57;;;7.60;;
7831;SDS011;3961;42.058;25.586;2023-11-21T07:46:45;13.77;;;7.37;;
7831;SDS011;3961;42.058;25.586;2023-11-21T07:49:11;13.40;;;7.27;;
7831;SDS011;3961;42.058;25.586;2023-11-21T07:51:40;21.60;;;8.00;;
7831;SDS011;3961;42.058;25.586;2023-11-21T07:54:05;19.80;;;9.40;;
7831;SDS011;3961;42.058;25.586;2023-11-21T07:56:31;16.07;;;8.57;;
7831;SDS011;3961;42.058;25.586;2023-11-21T07:58:57;23.83;;;9.07;;
7831;SDS011;3961;42.058;25.586;2023-11-21T08:01:22;16.40;;;10.40;;
7831;SDS011;3961;42.058;25.586;2023-11-21T08:03:48;24.80;;;10.20;;
7831;SDS011;3961;42.058;25.586;2023-11-21T08:06:16;28.13;;;12.23;;
7831;SDS011;3961;42.058;25.586;2023-11-21T08:08:42;24.30;;;15.50;;
7831;SDS011;3961;42.058;25.586;2023-11-21T08:11:08;31.43;;;17.73;;
7831;SDS011;3961;42.058;25.586;2023-11-21T08:13:35;28.37;;;19.70;;
7831;SDS011;3961;42.058;25.586;2023-11-21T08:16:01;34.03;;;21.97;;
7831;SDS011;3961;42.058;25.586;2023-11-21T08:18:30;36.17;;;21.67;;
7831;SDS011;3961;42.058;25.586;2023-11-21T08:20:55;39.27;;;21.27;;
7831;SDS011;3961;42.058;25.586;2023-11-21T08:23:21;35.53;;;20.90;;
7831;SDS011;3961;42.058;25.586;2023-11-21T08:25:54;29.63;;;18.43;;
7831;SDS011;3961;42.058;25.586;2023-11-21T08:28:20;35.83;;;22.37;;
7831;SDS011;3961;42.058;25.586;2023-11-21T08:30:51;40.00;;;24.17;;
7831;SDS011;3961;42.058;25.586;2023-11-21T08:33:17;36.83;;;20.57;;
7831;SDS011;3961;42.058;25.586;2023-11-21T08:35:43;23.90;;;16.43;;
7831;SDS011;3961;42.058;25.586;2023-11-21T08:38:11;19.43;;;13.93;;
7831;SDS011;3961;42.058;25.586;2023-11-21T08:40:37;18.80;;;14.10;;
7831;SDS011;3961;42.058;25.586;2023-11-21T08:43:03;24.37;;;14.37;;
7831;SDS011;3961;42.058;25.586;2023-11-21T08:45:29;30.27;;;19.10;;
7831;SDS011;3961;42.058;25.586;2023-11-21T08:47:56;26.00;;;15.50;;
7831;SDS011;3961;42.058;25.586;2023-11-21T08:50:21;31.10;;;18.03;;
7831;SDS011;3961;42.058;25.586;2023-11-21T08:52:47;33.10;;;17.93;;
7831;SDS011;3961;42.058;25.586;2023-11-21T08:55:14;21.33;;;11.07;;
7831;SDS011;3961;42.058;25.586;2023-11-21T08:57:40;20.10;;;10.60;;
7831;SDS011;3961;42.058;25.586;2023-11-21T09:00:08;17.53;;;11.57;;
7831;SDS011;3961;42.058;25.586;2023-11-21T09:02:38;18.77;;;10.47;;
7831;SDS011;3961;42.058;25.586;2023-11-21T09:05:07;19.90;;;11.73;;
7831;SDS011;3961;42.058;25.586;2023-11-21T09:07:34;18.03;;;11.07;;
7831;SDS011;3961;42.058;25.586;2023-11-21T09:10:00;15.10;;;10.30;;
7831;SDS011;3961;42.058;25.586;2023-11-21T09:12:27;14.93;;;10.23;;
7831;SDS011;3961;42.058;25.586;2023-11-21T09:14:52;20.07;;;10.70;;
7831;SDS011;3961;42.058;25.586;2023-11-21T09:17:18;15.13;;;9.87;;
7831;SDS011;3961;42.058;25.586;2023-11-21T09:19:44;13.93;;;10.07;;
7831;SDS011;3961;42.058;25.586;2023-11-21T09:22:15;13.87;;;9.47;;
7831;SDS011;3961;42.058;25.586;2023-11-21T09:24:41;12.30;;;8.90;;
7831;SDS011;3961;42.058;25.586;2023-11-21T09:27:07;14.27;;;10.53;;
7831;SDS011;3961;42.058;25.586;2023-11-21T09:29:34;14.03;;;9.33;;
7831;SDS011;3961;42.058;25.586;2023-11-21T09:31:59;17.33;;;9.27;;
7831;SDS011;3961;42.058;25.586;2023-11-21T09:34:26;10.60;;;8.57;;
7831;SDS011;3961;42.058;25.586;2023-11-21T09:36:52;18.47;;;9.77;;
7831;SDS011;3961;42.058;25.586;2023-11-21T09:39:19;18.03;;;8.87;;
7831;SDS011;3961;42.058;25.586;2023-11-21T09:41:51;16.43;;;9.40;;
7831;SDS011;3961;42.058;25.586;2023-11-21T09:47:33;14.70;;;8.90;;
7831;SDS011;3961;42.058;25.586;2023-11-21T09:50:03;14.77;;;8.70;;
7831;SDS011;3961;42.058;25.586;2023-11-21T09:52:33;13.80;;;8.17;;
7831;SDS011;3961;42.058;25.586;2023-11-21T09:55:14;14.30;;;8.30;;
7831;SDS011;3961;42.058;25.586;2023-11-21T09:57:44;10.33;;;7.73;;
7831;SDS011;3961;42.058;25.586;2023-11-21T10:00:10;13.63;;;9.33;;
7831;SDS011;3961;42.058;25.586;2023-11-21T10:02:37;14.43;;;8.80;;
7831;SDS011;3961;42.058;25.586;2023-11-21T10:05:06;23.87;;;14.63;;
7831;SDS011;3961;42.058;25.586;2023-11-21T10:07:32;25.37;;;14.27;;
7831;SDS011;3961;42.058;25.586;2023-11-21T10:10:00;14.67;;;9.23;;
7831;SDS011;3961;42.058;25.586;2023-11-21T10:12:27;18.57;;;11.83;;
7831;SDS011;3961;42.058;25.586;2023-11-21T10:14:54;26.87;;;18.97;;
7831;SDS011;3961;42.058;25.586;2023-11-21T10:17:21;52.97;;;36.23;;
7831;SDS011;3961;42.058;25.586;2023-11-21T10:19:51;31.53;;;17.30;;
7831;SDS011;3961;42.058;25.586;2023-11-21T10:22:19;15.07;;;9.07;;
7831;SDS011;3961;42.058;25.586;2023-11-21T10:24:46;13.80;;;9.03;;
7831;SDS011;3961;42.058;25.586;2023-11-21T10:27:11;12.43;;;8.37;;
7831;SDS011;3961;42.058;25.586;2023-11-21T10:29:39;13.93;;;7.73;;
7831;SDS011;3961;42.058;25.586;2023-11-21T10:32:05;14.13;;;8.47;;
7831;SDS011;3961;42.058;25.586;2023-11-21T10:34:31;13.67;;;8.23;;
7831;SDS011;3961;42.058;25.586;2023-11-21T10:36:57;11.13;;;8.07;;
7831;SDS011;3961;42.058;25.586;2023-11-21T10:39:23;22.27;;;8.90;;
7831;SDS011;3961;42.058;25.586;2023-11-21T10:41:53;10.33;;;7.73;;
7831;SDS011;3961;42.058;25.586;2023-11-21T10:44:20;14.87;;;7.80;;
7831;SDS011;3961;42.058;25.586;2023-11-21T10:46:49;13.40;;;8.37;;
7831;SDS011;3961;42.058;25.586;2023-11-21T10:49:19;16.37;;;12.77;;
7831;SDS011;3961;42.058;25.586;2023-11-21T10:51:45;12.83;;;7.73;;
7831;SDS011;3961;42.058;25.586;2023-11-21T10:54:11;50.60;;;43.43;;
7831;SDS011;3961;42.058;25.586;2023-11-21T10:56:37;22.07;;;10.93;;
7831;SDS011;3961;42.058;25.586;2023-11-21T10:59:09;11.27;;;7.20;;
7831;SDS011;3961;42.058;25.586;2023-11-21T11:01:44;12.93;;;7.20;;
7831;SDS011;3961;42.058;25.586;2023-11-21T11:04:11;13.00;;;7.07;;
7831;SDS011;3961;42.058;25.586;2023-11-21T11:06:44;15.50;;;7.93;;
7831;SDS011;3961;42.058;25.586;2023-11-21T11:09:16;10.60;;;6.90;;
7831;SDS011;3961;42.058;25.586;2023-11-21T11:11:43;18.87;;;6.53;;
7831;SDS011;3961;42.058;25.586;2023-11-21T11:14:11;10.37;;;6.30;;
7831;SDS011;3961;42.058;25.586;2023-11-21T11:16:41;11.93;;;6.60;;
7831;SDS011;3961;42.058;25.586;2023-11-21T11:19:08;8.87;;;6.07;;
7831;SDS011;3961;42.058;25.586;2023-11-21T11:29:41;9.57;;;5.10;;
7831;SDS011;3961;42.058;25.586;2023-11-21T11:35:33;9.47;;;6.47;;
7831;SDS011;3961;42.058;25.586;2023-11-21T11:37:59;31.30;;;19.63;;
7831;SDS011;3961;42.058;25.586;2023-11-21T11:40:46;11.13;;;5.70;;
7831;SDS011;3961;42.058;25.586;2023-11-21T11:43:11;8.73;;;5.50;;
7831;SDS011;3961;42.058;25.586;2023-11-21T11:45:37;11.20;;;5.70;;
7831;SDS011;3961;42.058;25.586;2023-11-21T11:48:07;7.70;;;4.83;;
7831;SDS011;3961;42.058;25.586;2023-11-21T11:50:33;6.80;;;4.50;;
7831;SDS011;3961;42.058;25.586;2023-11-21T11:53:12;10.53;;;7.60;;
7831;SDS011;3961;42.058;25.586;2023-11-21T11:55:39;95.73;;;65.03;;
7831;SDS011;3961;42.058;25.586;2023-11-21T11:58:05;9.20;;;6.53;;
7831;SDS011;3961;42.058;25.586;2023-11-21T12:02:58;9.00;;;6.03;;
7831;SDS011;3961;42.058;25.586;2023-11-21T12:05:28;11.83;;;6.47;;
7831;SDS011;3961;42.058;25.586;2023-11-21T12:08:01;13.63;;;5.70;;
7831;SDS011;3961;42.058;25.586;2023-11-21T12:10:31;22.83;;;6.90;;
7831;SDS011;3961;42.058;25.586;2023-11-21T12:13:02;10.40;;;5.77;;
7831;SDS011;3961;42.058;25.586;2023-11-21T12:15:35;9.37;;;5.90;;
7831;SDS011;3961;42.058;25.586;2023-11-21T12:18:02;9.30;;;5.73;;
7831;SDS011;3961;42.058;25.586;2023-11-21T12:20:29;15.53;;;10.77;;
7831;SDS011;3961;42.058;25.586;2023-11-21T12:22:57;18.47;;;10.90;;
7831;SDS011;3961;42.058;25.586;2023-11-21T12:25:27;16.30;;;5.63;;
7831;SDS011;3961;42.058;25.586;2023-11-21T12:27:54;12.00;;;6.13;;
7831;SDS011;3961;42.058;25.586;2023-11-21T12:30:22;8.83;;;5.10;;
7831;SDS011;3961;42.058;25.586;2023-11-21T12:32:49;13.43;;;6.83;;
7831;SDS011;3961;42.058;25.586;2023-11-21T12:35:19;8.90;;;5.53;;
7831;SDS011;3961;42.058;25.586;2023-11-21T12:37:49;17.30;;;6.33;;
7831;SDS011;3961;42.058;25.586;2023-11-21T12:40:17;11.53;;;6.57;;
7831;SDS011;3961;42.058;25.586;2023-11-21T12:42:46;9.00;;;5.43;;
7831;SDS011;3961;42.058;25.586;2023-11-21T12:48:04;17.13;;;5.90;;
7831;SDS011;3961;42.058;25.586;2023-11-21T12:50:33;9.27;;;6.10;;
7831;SDS011;3961;42.058;25.586;2023-11-21T12:55:35;11.90;;;5.80;;
7831;SDS011;3961;42.058;25.586;2023-11-21T12:58:08;20.67;;;9.43;;
7831;SDS011;3961;42.058;25.586;2023-11-21T13:00:36;12.27;;;6.27;;
7831;SDS011;3961;42.058;25.586;2023-11-21T13:03:05;18.03;;;6.90;;
7831;SDS011;3961;42.058;25.586;2023-11-21T13:05:34;15.43;;;6.73;;
7831;SDS011;3961;42.058;25.586;2023-11-21T13:08:15;11.73;;;6.73;;
7831;SDS011;3961;42.058;25.586;2023-11-21T13:10:44;16.43;;;10.33;;
7831;SDS011;3961;42.058;25.586;2023-11-21T13:13:12;20.20;;;8.87;;
7831;SDS011;3961;42.058;25.586;2023-11-21T13:15:48;27.33;;;7.27;;
7831;SDS011;3961;42.058;25.586;2023-11-21T13:18:14;13.30;;;7.00;;
7831;SDS011;3961;42.058;25.586;2023-11-21T13:20:41;20.07;;;8.77;;
7831;SDS011;3961;42.058;25.586;2023-11-21T13:23:08;18.23;;;7.73;;
7831;SDS011;3961;42.058;25.586;2023-11-21T13:25:37;12.43;;;6.63;;
7831;SDS011;3961;42.058;25.586;2023-11-21T13:28:06;16.93;;;7.90;;
7831;SDS011;3961;42.058;25.586;2023-11-21T13:30:32;29.60;;;10.87;;
7831;SDS011;3961;42.058;25.586;2023-11-21T13:32:59;19.90;;;9.27;;
7831;SDS011;3961;42.058;25.586;2023-11-21T13:35:31;13.43;;;6.83;;
7831;SDS011;3961;42.058;25.586;2023-11-21T13:38:18;17.97;;;7.27;;
7831;SDS011;3961;42.058;25.586;2023-11-21T13:40:54;32.40;;;18.27;;
7831;SDS011;3961;42.058;25.586;2023-11-21T13:43:20;17.47;;;7.23;;
7831;SDS011;3961;42.058;25.586;2023-11-21T13:45:49;12.03;;;7.37;;
7831;SDS011;3961;42.058;25.586;2023-11-21T13:48:24;16.20;;;8.27;;
7831;SDS011;3961;42.058;25.586;2023-11-21T13:51:10;18.67;;;6.57;;
7831;SDS011;3961;42.058;25.586;2023-11-21T13:53:43;12.27;;;7.33;;
7831;SDS011;3961;42.058;25.586;2023-11-21T13:56:10;12.73;;;6.13;;
7831;SDS011;3961;42.058;25.586;2023-11-21T13:58:38;6.53;;;4.73;;
7831;SDS011;3961;42.058;25.586;2023-11-21T14:01:17;16.37;;;5.30;;
7831;SDS011;3961;42.058;25.586;2023-11-21T14:03:55;5.03;;;3.73;;
7831;SDS011;3961;42.058;25.586;2023-11-21T14:06:23;6.47;;;3.57;;
7831;SDS011;3961;42.058;25.586;2023-11-21T14:08:55;4.87;;;3.23;;
7831;SDS011;3961;42.058;25.586;2023-11-21T14:11:22;5.30;;;3.57;;
7831;SDS011;3961;42.058;25.586;2023-11-21T14:13:47;4.97;;;3.10;;
7831;SDS011;3961;42.058;25.586;2023-11-21T14:16:14;7.87;;;5.33;;
7831;SDS011;3961;42.058;25.586;2023-11-21T14:18:46;6.60;;;3.33;;
7831;SDS011;3961;42.058;25.586;2023-11-21T14:21:24;7.87;;;3.37;;
7831;SDS011;3961;42.058;25.586;2023-11-21T14:23:49;4.90;;;3.63;;
7831;SDS011;3961;42.058;25.586;2023-11-21T14:26:15;4.23;;;3.10;;
7831;SDS011;3961;42.058;25.586;2023-11-21T14:28:42;5.50;;;3.17;;
7831;SDS011;3961;42.058;25.586;2023-11-21T14:31:08;7.17;;;4.23;;
7831;SDS011;3961;42.058;25.586;2023-11-21T14:33:38;6.73;;;3.83;;
7831;SDS011;3961;42.058;25.586;2023-11-21T14:36:05;8.87;;;3.87;;
7831;SDS011;3961;42.058;25.586;2023-11-21T14:38:35;5.07;;;3.53;;
7831;SDS011;3961;42.058;25.586;2023-11-21T14:41:02;8.57;;;3.53;;
7831;SDS011;3961;42.058;25.586;2023-11-21T14:43:29;9.97;;;5.27;;
7831;SDS011;3961;42.058;25.586;2023-11-21T14:45:55;11.37;;;7.87;;
7831;SDS011;3961;42.058;25.586;2023-11-21T14:48:22;19.93;;;9.27;;
7831;SDS011;3961;42.058;25.586;2023-11-21T14:51:07;23.20;;;10.33;;
7831;SDS011;3961;42.058;25.586;2023-11-21T14:53:55;19.57;;;11.07;;
7831;SDS011;3961;42.058;25.586;2023-11-21T14:56:25;25.73;;;11.80;;
7831;SDS011;3961;42.058;25.586;2023-11-21T14:58:54;25.67;;;12.97;;
7831;SDS011;3961;42.058;25.586;2023-11-21T15:01:21;31.00;;;13.93;;
7831;SDS011;3961;42.058;25.586;2023-11-21T15:04:07;23.70;;;11.87;;
7831;SDS011;3961;42.058;25.586;2023-11-21T15:06:33;25.57;;;12.87;;
7831;SDS011;3961;42.058;25.586;2023-11-21T15:08:59;30.50;;;13.00;;
7831;SDS011;3961;42.058;25.586;2023-11-21T15:11:28;28.30;;;13.40;;
7831;SDS011;3961;42.058;25.586;2023-11-21T15:13:56;114.17;;;53.27;;